createdAt,value
2019-03-26T00:00:24.383Z,9.50
2019-03-26T00:02:55.090Z,9.47
2019-03-26T00:05:25.897Z,10.50
2019-03-26T00:07:56.860Z,9.87
2019-03-26T00:10:27.460Z,10.77
2019-03-26T00:12:57.965Z,10.07
2019-03-26T00:15:28.464Z,10.07
2019-03-26T00:18:00.645Z,11.30
2019-03-26T00:20:31.064Z,10.30
2019-03-26T00:23:01.690Z,10.77
2019-03-26T00:25:32.072Z,9.73
2019-03-26T00:28:03.040Z,10.90
2019-03-26T00:30:33.402Z,10.00
2019-03-26T00:33:04.131Z,10.53
2019-03-26T00:35:34.818Z,10.37
2019-03-26T00:38:05.809Z,10.70
2019-03-26T00:40:39.923Z,10.60
2019-03-26T00:43:09.396Z,11.13
2019-03-26T00:45:39.970Z,10.10
2019-03-26T00:48:11.066Z,10.60
2019-03-26T00:50:41.390Z,10.10
2019-03-26T00:53:12.278Z,10.03
2019-03-26T00:55:42.539Z,10.57
2019-03-26T00:58:12.955Z,9.97
2019-03-26T01:00:44.662Z,10.07
2019-03-26T01:03:15.406Z,10.37
2019-03-26T01:05:46.252Z,10.10
2019-03-26T01:08:16.858Z,9.83
2019-03-26T01:10:47.195Z,10.53
2019-03-26T01:13:18.227Z,9.93
2019-03-26T01:15:49.155Z,10.03
2019-03-26T01:18:19.989Z,9.90
2019-03-26T01:20:50.778Z,9.80
2019-03-26T01:23:21.302Z,10.20
2019-03-26T01:25:51.670Z,9.87
2019-03-26T01:28:23.664Z,9.70
2019-03-26T01:30:54.029Z,10.17
2019-03-26T01:33:24.522Z,10.10
2019-03-26T01:35:55.150Z,9.80
2019-03-26T01:38:25.765Z,9.50
2019-03-26T01:40:56.323Z,9.80
2019-03-26T01:43:27.103Z,9.53
2019-03-26T01:45:58.054Z,9.80
2019-03-26T01:48:28.878Z,9.90
2019-03-26T01:50:59.590Z,10.17
2019-03-26T01:53:30.112Z,9.37
2019-03-26T01:56:00.520Z,10.50
2019-03-26T01:58:30.962Z,10.67
2019-03-26T02:01:01.439Z,10.57
2019-03-26T02:03:32.072Z,10.33
2019-03-26T02:06:02.896Z,10.33
2019-03-26T02:08:33.480Z,9.87
2019-03-26T02:11:03.964Z,10.80
2019-03-26T02:13:34.305Z,9.90
2019-03-26T02:16:04.855Z,10.03
2019-03-26T02:18:35.114Z,10.33
2019-03-26T02:21:06.007Z,9.70
2019-03-26T02:23:36.653Z,10.40
2019-03-26T02:26:07.716Z,10.87
2019-03-26T02:28:38.154Z,10.33
2019-03-26T02:31:08.559Z,10.00
2019-03-26T02:33:38.831Z,10.13
2019-03-26T02:36:09.210Z,9.80
2019-03-26T02:38:40.139Z,10.37
2019-03-26T02:41:11.054Z,9.57
2019-03-26T02:43:41.654Z,10.30
2019-03-26T02:46:12.549Z,10.37
2019-03-26T02:48:43.231Z,10.63
2019-03-26T02:51:13.823Z,9.60
2019-03-26T02:53:44.220Z,10.77
2019-03-26T02:56:15.914Z,10.80
2019-03-26T02:58:46.216Z,10.53
2019-03-26T03:01:16.934Z,10.47
2019-03-26T03:03:48.993Z,10.10
2019-03-26T03:06:19.499Z,10.17
2019-03-26T03:08:52.999Z,10.37
2019-03-26T03:11:26.687Z,10.27
2019-03-26T03:13:57.102Z,10.97
2019-03-26T03:16:27.666Z,10.70
2019-03-26T03:18:58.639Z,11.00
2019-03-26T03:21:32.026Z,11.10
2019-03-26T03:24:02.735Z,11.10
2019-03-26T03:26:33.112Z,11.17
2019-03-26T03:29:05.967Z,10.57
2019-03-26T03:31:36.383Z,11.30
2019-03-26T03:34:07.783Z,10.77
2019-03-26T03:36:38.499Z,10.77
2019-03-26T03:39:10.772Z,11.20
2019-03-26T03:41:42.587Z,11.50
2019-03-26T03:44:13.619Z,11.60
2019-03-26T03:46:46.865Z,11.17
2019-03-26T03:49:27.042Z,11.13
2019-03-26T03:52:01.568Z,11.37
2019-03-26T03:54:32.284Z,11.10
2019-03-26T03:57:06.054Z,12.57
2019-03-26T03:59:42.825Z,12.10
2019-03-26T04:02:13.138Z,11.40
2019-03-26T04:04:44.059Z,10.30
2019-03-26T04:07:18.048Z,11.53
2019-03-26T04:09:48.456Z,11.37
2019-03-26T04:12:21.179Z,11.53
2019-03-26T04:14:51.497Z,11.43
2019-03-26T04:17:21.943Z,12.10
2019-03-26T04:19:52.254Z,12.03
2019-03-26T04:22:23.754Z,11.43
2019-03-26T04:24:54.560Z,16.10
2019-03-26T04:27:28.286Z,24.40
2019-03-26T04:29:58.699Z,43.37
2019-03-26T04:32:34.297Z,14.17
2019-03-26T04:35:05.524Z,12.83
2019-03-26T04:37:38.686Z,13.17
2019-03-26T04:40:14.622Z,16.00
2019-03-26T04:42:48.383Z,17.03
2019-03-26T04:45:23.570Z,17.17
2019-03-26T04:47:54.442Z,21.77
2019-03-26T04:50:26.483Z,19.03
2019-03-26T04:52:57.114Z,13.87
2019-03-26T04:55:27.779Z,13.37
2019-03-26T04:57:58.680Z,14.03
2019-03-26T05:00:29.593Z,14.27
2019-03-26T05:02:59.920Z,16.73
2019-03-26T05:05:30.506Z,16.43
2019-03-26T05:08:01.883Z,14.27
2019-03-26T05:10:32.322Z,14.43
2019-03-26T05:13:02.651Z,14.43
2019-03-26T05:15:33.323Z,14.07
2019-03-26T05:18:03.909Z,14.07
2019-03-26T05:20:34.248Z,15.13
2019-03-26T05:23:04.630Z,14.50
2019-03-26T05:25:35.343Z,14.20
2019-03-26T05:28:05.913Z,13.97
2019-03-26T05:30:36.486Z,14.47
2019-03-26T05:33:06.999Z,14.97
2019-03-26T05:35:37.521Z,13.87
2019-03-26T05:38:11.063Z,14.87
2019-03-26T05:40:41.558Z,14.53
2019-03-26T05:43:11.918Z,14.93
2019-03-26T05:45:42.358Z,14.90
2019-03-26T05:48:13.062Z,15.70
2019-03-26T05:50:43.649Z,15.00
2019-03-26T05:53:14.255Z,14.63
2019-03-26T05:55:44.886Z,15.67
2019-03-26T05:58:15.465Z,14.77
2019-03-26T06:00:45.809Z,14.83
2019-03-26T06:03:16.317Z,15.53
2019-03-26T06:05:46.897Z,15.47
2019-03-26T06:08:17.497Z,15.47
2019-03-26T06:10:47.834Z,15.90
2019-03-26T06:13:18.582Z,15.30
2019-03-26T06:15:49.073Z,15.33
2019-03-26T06:18:19.644Z,15.80
2019-03-26T06:20:50.163Z,16.40
2019-03-26T06:23:20.646Z,15.47
2019-03-26T06:25:50.899Z,15.57
2019-03-26T06:28:21.302Z,15.23
2019-03-26T06:30:51.621Z,14.47
2019-03-26T06:33:22.195Z,14.17
2019-03-26T06:35:53.091Z,13.87
2019-03-26T06:38:23.506Z,15.27
2019-03-26T06:40:54.196Z,14.17
2019-03-26T06:43:24.520Z,15.33
2019-03-26T06:45:54.888Z,15.90
2019-03-26T06:48:25.215Z,16.03
2019-03-26T06:50:55.500Z,15.40
2019-03-26T06:53:26.374Z,14.33
2019-03-26T06:55:56.670Z,14.10
2019-03-26T06:58:26.916Z,12.33
2019-03-26T07:00:58.171Z,12.40
2019-03-26T07:03:28.682Z,10.73
2019-03-26T07:05:59.379Z,11.80
2019-03-26T07:08:29.882Z,11.57
2019-03-26T07:11:00.425Z,10.93
2019-03-26T07:13:30.926Z,11.07
2019-03-26T07:16:01.558Z,13.87
2019-03-26T07:18:31.943Z,11.70
2019-03-26T07:21:02.648Z,10.53
2019-03-26T07:23:33.326Z,10.93
2019-03-26T07:29:32.528Z,12.03
2019-03-26T07:32:03.385Z,10.57
2019-03-26T07:34:33.894Z,10.97
2019-03-26T07:37:04.483Z,12.20
2019-03-26T07:39:35.052Z,11.87
2019-03-26T07:42:05.494Z,12.83
2019-03-26T07:44:36.323Z,11.90
2019-03-26T07:47:06.749Z,11.80
2019-03-26T07:49:36.990Z,10.70
2019-03-26T07:52:07.502Z,11.00
2019-03-26T07:54:37.902Z,9.77
2019-03-26T07:57:08.314Z,9.97
2019-03-26T07:59:38.719Z,11.30
2019-03-26T08:02:09.058Z,11.50
2019-03-26T08:04:39.394Z,11.23
2019-03-26T08:07:09.726Z,11.03
2019-03-26T08:09:39.961Z,12.23
2019-03-26T08:12:10.270Z,10.70
2019-03-26T08:14:40.621Z,10.77
2019-03-26T08:17:10.863Z,9.07
2019-03-26T08:19:41.373Z,9.40
2019-03-26T08:22:11.889Z,9.93
2019-03-26T08:24:42.167Z,10.40
2019-03-26T08:27:12.807Z,9.77
2019-03-26T08:29:43.098Z,10.87
2019-03-26T08:32:13.390Z,8.50
2019-03-26T08:34:46.643Z,9.33
2019-03-26T08:37:16.444Z,9.47
2019-03-26T08:39:46.693Z,7.97
2019-03-26T08:42:16.935Z,9.40
2019-03-26T08:44:47.212Z,8.90
2019-03-26T08:47:17.767Z,8.73
2019-03-26T08:49:48.514Z,8.03
2019-03-26T08:52:19.614Z,8.97
2019-03-26T08:54:49.866Z,7.80
2019-03-26T08:57:20.455Z,8.73
2019-03-26T08:59:50.795Z,8.03
2019-03-26T09:02:21.126Z,8.10
2019-03-26T09:04:51.902Z,6.97
2019-03-26T09:07:22.219Z,7.77
2019-03-26T09:09:52.463Z,7.83
2019-03-26T09:12:23.063Z,7.53
2019-03-26T09:14:53.461Z,8.00
2019-03-26T09:17:23.734Z,7.97
2019-03-26T09:19:54.081Z,7.70
2019-03-26T09:22:24.639Z,7.73
2019-03-26T09:24:55.749Z,7.80
2019-03-26T09:27:26.056Z,7.27
2019-03-26T09:29:56.411Z,6.53
2019-03-26T09:32:26.810Z,7.20
2019-03-26T09:34:57.804Z,8.13
2019-03-26T09:37:28.122Z,6.43
2019-03-26T09:39:59.040Z,6.30
2019-03-26T09:42:29.473Z,6.83
2019-03-26T09:45:00.371Z,7.73
2019-03-26T09:47:30.784Z,8.40
2019-03-26T09:50:01.450Z,6.63
2019-03-26T09:52:31.754Z,6.63
2019-03-26T09:55:02.221Z,7.63
2019-03-26T09:57:32.718Z,9.13
2019-03-26T10:00:03.475Z,8.83
2019-03-26T10:02:33.910Z,9.43
2019-03-26T10:05:04.594Z,8.60
2019-03-26T10:07:35.088Z,10.83
2019-03-26T10:10:07.766Z,10.43
2019-03-26T10:12:38.047Z,12.53
2019-03-26T10:15:08.688Z,9.73
2019-03-26T10:17:39.100Z,13.33
2019-03-26T10:20:10.006Z,11.67
2019-03-26T10:22:40.360Z,8.80
2019-03-26T10:25:11.650Z,8.20
2019-03-26T10:27:42.099Z,8.47
2019-03-26T10:30:13.347Z,12.50
2019-03-26T10:32:43.694Z,8.87
2019-03-26T10:35:14.543Z,7.87
2019-03-26T10:37:44.893Z,7.50
2019-03-26T10:40:24.189Z,7.03
2019-03-26T10:42:54.844Z,6.47
2019-03-26T10:45:25.355Z,8.20
2019-03-26T10:47:55.621Z,8.63
2019-03-26T10:50:25.982Z,7.83
2019-03-26T10:52:56.399Z,7.53
2019-03-26T10:55:26.766Z,7.73
2019-03-26T10:57:57.494Z,7.90
2019-03-26T11:00:28.186Z,7.13
2019-03-26T11:02:58.438Z,6.80
2019-03-26T11:05:28.663Z,6.97
2019-03-26T11:07:59.007Z,6.77
2019-03-26T11:10:30.037Z,5.90
2019-03-26T11:13:00.651Z,5.97
2019-03-26T11:15:30.957Z,6.47
2019-03-26T11:18:02.090Z,5.57
2019-03-26T11:20:32.677Z,4.90
2019-03-26T11:23:03.062Z,4.70
2019-03-26T11:25:33.565Z,4.30
2019-03-26T11:28:04.437Z,4.77
2019-03-26T11:30:34.995Z,5.20
2019-03-26T11:33:05.461Z,7.03
2019-03-26T11:35:35.945Z,5.30
2019-03-26T11:38:06.383Z,4.67
2019-03-26T11:40:36.954Z,5.20
2019-03-26T11:43:07.328Z,5.70
2019-03-26T11:45:38.130Z,5.60
2019-03-26T11:48:08.741Z,4.60
2019-03-26T11:50:38.994Z,5.60
2019-03-26T11:53:09.438Z,4.30
2019-03-26T11:55:39.763Z,5.07
2019-03-26T11:58:10.092Z,5.23
2019-03-26T12:00:40.414Z,5.00
2019-03-26T12:03:10.965Z,5.03
2019-03-26T12:05:41.198Z,5.93
2019-03-26T12:08:11.650Z,5.70
2019-03-26T12:10:41.962Z,6.73
2019-03-26T12:13:12.636Z,6.67
2019-03-26T12:15:43.122Z,5.87
2019-03-26T12:18:13.855Z,5.73
2019-03-26T12:20:44.102Z,5.90
2019-03-26T12:23:14.793Z,7.00
2019-03-26T12:25:45.323Z,6.33
2019-03-26T12:28:15.612Z,6.10
2019-03-26T12:30:46.125Z,5.87
2019-03-26T12:33:16.800Z,6.10
2019-03-26T12:35:47.462Z,6.63
2019-03-26T12:38:21.793Z,6.10
2019-03-26T12:40:52.631Z,6.23
2019-03-26T12:43:23.330Z,6.53
2019-03-26T12:45:53.768Z,7.10
2019-03-26T12:48:24.151Z,6.10
2019-03-26T12:50:54.486Z,5.83
2019-03-26T12:53:24.840Z,5.40
2019-03-26T12:55:55.226Z,5.87
2019-03-26T12:58:31.568Z,6.27
2019-03-26T13:00:57.463Z,6.77
2019-03-26T13:03:27.747Z,6.20
2019-03-26T13:05:58.230Z,6.10
2019-03-26T13:08:29.080Z,6.47
2019-03-26T13:10:59.307Z,11.47
2019-03-26T13:13:30.452Z,9.23
2019-03-26T13:16:00.759Z,7.90
2019-03-26T13:18:31.034Z,6.43
2019-03-26T13:21:01.442Z,6.50
2019-03-26T13:23:31.790Z,7.17
2019-03-26T13:26:02.084Z,6.80
2019-03-26T13:28:32.690Z,7.07
2019-03-26T13:31:02.946Z,6.27
2019-03-26T13:33:33.712Z,5.87
2019-03-26T13:36:04.078Z,6.13
2019-03-26T13:38:34.682Z,6.10
2019-03-26T13:41:05.389Z,8.37
2019-03-26T13:43:36.097Z,6.30
2019-03-26T13:46:06.443Z,6.47
2019-03-26T13:48:37.027Z,6.10
2019-03-26T13:51:07.291Z,6.40
2019-03-26T13:53:37.623Z,6.63
2019-03-26T13:56:07.988Z,6.50
2019-03-26T13:58:38.365Z,6.43
2019-03-26T14:01:08.804Z,6.60
2019-03-26T14:03:39.281Z,6.63
2019-03-26T14:06:09.835Z,6.27
2019-03-26T14:08:40.170Z,6.00
2019-03-26T14:11:10.575Z,5.60
2019-03-26T14:13:41.102Z,5.10
2019-03-26T14:16:11.447Z,5.90
2019-03-26T14:18:41.997Z,5.57
2019-03-26T14:21:12.387Z,5.97
2019-03-26T14:23:42.639Z,6.13
2019-03-26T14:26:13.819Z,5.70
2019-03-26T14:28:44.920Z,5.63
2019-03-26T14:31:15.638Z,5.77
2019-03-26T14:33:46.042Z,6.00
2019-03-26T14:36:16.408Z,4.80
2019-03-26T14:38:47.060Z,5.40
2019-03-26T14:41:17.447Z,5.60
2019-03-26T14:43:47.706Z,5.13
2019-03-26T14:46:18.240Z,4.83
2019-03-26T14:48:48.522Z,5.57
2019-03-26T14:51:18.897Z,5.23
2019-03-26T14:53:49.274Z,5.20
2019-03-26T14:56:20.111Z,5.50
2019-03-26T14:58:50.472Z,6.70
2019-03-26T15:01:20.745Z,5.90
2019-03-26T15:03:51.573Z,6.37
2019-03-26T15:06:21.971Z,5.90
2019-03-26T15:08:52.676Z,5.20
2019-03-26T15:11:23.073Z,5.53
2019-03-26T15:13:53.333Z,5.53
2019-03-26T15:16:23.861Z,5.30
2019-03-26T15:18:54.174Z,5.33
2019-03-26T15:21:24.866Z,5.40
2019-03-26T15:23:55.410Z,6.27
2019-03-26T15:26:25.709Z,5.70
2019-03-26T15:28:56.426Z,5.53
2019-03-26T15:31:26.743Z,6.10
2019-03-26T15:33:57.087Z,5.40
2019-03-26T15:36:27.446Z,5.57
2019-03-26T15:38:57.775Z,6.17
2019-03-26T15:41:30.274Z,5.43
2019-03-26T15:44:00.337Z,5.27
2019-03-26T15:46:30.657Z,5.57
2019-03-26T15:49:01.594Z,5.20
2019-03-26T15:51:31.937Z,5.00
2019-03-26T15:54:03.152Z,4.83
2019-03-26T15:56:33.592Z,6.60
2019-03-26T15:59:03.980Z,6.03
2019-03-26T16:01:34.549Z,6.07
2019-03-26T16:04:04.910Z,5.53
2019-03-26T16:06:35.215Z,5.60
2019-03-26T16:09:07.862Z,5.40
2019-03-26T16:11:38.292Z,5.37
2019-03-26T16:14:08.615Z,5.90
2019-03-26T16:16:39.180Z,5.97
2019-03-26T16:19:09.586Z,5.10
2019-03-26T16:21:40.129Z,4.93
2019-03-26T16:24:10.429Z,5.17
2019-03-26T16:26:40.683Z,5.07
2019-03-26T16:29:11.041Z,5.27
2019-03-26T16:31:41.669Z,5.30
2019-03-26T16:34:12.291Z,5.57
2019-03-26T16:36:42.607Z,5.10
2019-03-26T16:39:12.849Z,4.80
2019-03-26T16:41:48.862Z,4.33
2019-03-26T16:44:15.903Z,5.70
2019-03-26T16:46:46.743Z,4.50
2019-03-26T16:49:16.991Z,4.90
2019-03-26T16:51:47.362Z,4.50
2019-03-26T16:54:17.674Z,4.33
2019-03-26T16:56:48.450Z,4.93
2019-03-26T16:59:19.283Z,4.80
2019-03-26T17:01:49.615Z,4.53
2019-03-26T17:04:19.954Z,4.40
2019-03-26T17:06:50.510Z,4.67
2019-03-26T17:09:21.201Z,6.23
2019-03-26T17:12:02.511Z,6.00
2019-03-26T17:14:23.838Z,5.73
2019-03-26T17:16:54.066Z,5.77
2019-03-26T17:19:24.629Z,5.90
2019-03-26T17:21:54.860Z,6.40
2019-03-26T17:24:25.236Z,6.17
2019-03-26T17:26:55.458Z,5.70
2019-03-26T17:29:26.119Z,6.97
2019-03-26T17:31:56.406Z,6.40
2019-03-26T17:34:27.101Z,6.00
2019-03-26T17:36:57.346Z,6.30
2019-03-26T17:39:27.602Z,8.33
2019-03-26T17:41:57.893Z,9.60
2019-03-26T17:44:28.263Z,9.83
2019-03-26T17:46:58.522Z,11.40
2019-03-26T17:49:29.071Z,13.40
2019-03-26T17:51:59.314Z,13.53
2019-03-26T17:54:29.561Z,16.83
2019-03-26T17:57:00.202Z,13.77
2019-03-26T17:59:30.531Z,15.43
2019-03-26T18:02:01.277Z,16.47
2019-03-26T18:04:32.868Z,18.87
2019-03-26T18:07:05.415Z,15.23
2019-03-26T18:09:35.479Z,16.37
2019-03-26T18:12:06.017Z,17.23
2019-03-26T18:14:36.619Z,18.60
2019-03-26T18:17:07.417Z,18.53
2019-03-26T18:19:37.911Z,17.13
2019-03-26T18:22:08.616Z,15.57
2019-03-26T18:24:38.975Z,16.40
2019-03-26T18:27:09.669Z,20.50
2019-03-26T18:29:40.236Z,22.77
2019-03-26T18:32:10.590Z,18.83
2019-03-26T18:34:40.907Z,19.20
2019-03-26T18:37:11.603Z,17.50
2019-03-26T18:39:41.837Z,15.37
2019-03-26T18:42:12.180Z,15.37
2019-03-26T18:44:48.665Z,14.53
2019-03-26T18:47:18.922Z,14.97
2019-03-26T18:49:49.198Z,14.30
2019-03-26T18:52:19.692Z,13.50
2019-03-26T18:54:50.238Z,18.13
2019-03-26T18:57:20.639Z,15.43
2019-03-26T18:59:51.239Z,15.70
2019-03-26T19:02:21.786Z,14.43
2019-03-26T19:04:52.307Z,15.63
2019-03-26T19:07:22.719Z,15.97
2019-03-26T19:09:52.987Z,15.70
2019-03-26T19:12:23.257Z,15.40
2019-03-26T19:14:53.807Z,14.63
2019-03-26T19:17:24.401Z,13.57
2019-03-26T19:19:58.179Z,14.23
2019-03-26T19:22:27.406Z,15.33
2019-03-26T19:24:58.058Z,15.83
2019-03-26T19:27:28.682Z,19.63
2019-03-26T19:29:59.026Z,18.73
2019-03-26T19:32:29.750Z,19.20
2019-03-26T19:35:00.365Z,24.57
2019-03-26T19:37:31.197Z,21.67
2019-03-26T19:40:02.122Z,21.87
2019-03-26T19:42:32.596Z,17.33
2019-03-26T19:45:03.002Z,14.73
2019-03-26T19:47:33.639Z,16.17
2019-03-26T19:50:04.309Z,13.83
2019-03-26T19:52:34.618Z,16.63
2019-03-26T19:55:05.311Z,17.87
2019-03-26T19:57:35.558Z,17.60
2019-03-26T20:00:06.653Z,14.37
2019-03-26T20:02:36.921Z,14.50
2019-03-26T20:05:07.951Z,15.57
2019-03-26T20:07:38.254Z,14.17
2019-03-26T20:10:10.549Z,15.43
2019-03-26T20:12:41.039Z,17.53
2019-03-26T20:15:12.499Z,16.37
2019-03-26T20:17:43.152Z,14.57
2019-03-26T20:20:15.325Z,15.87
2019-03-26T20:22:45.963Z,17.27
2019-03-26T20:25:16.930Z,17.60
2019-03-26T20:27:47.737Z,17.87
2019-03-26T20:30:18.487Z,18.53
2019-03-26T20:32:49.043Z,18.37
2019-03-26T20:35:19.610Z,19.87
2019-03-26T20:37:50.659Z,18.00
2019-03-26T20:40:21.199Z,17.47
2019-03-26T20:42:51.657Z,17.40
2019-03-26T20:45:29.050Z,16.70
2019-03-26T20:47:59.547Z,16.93
2019-03-26T20:50:30.493Z,16.47
2019-03-26T20:53:04.042Z,16.27
2019-03-26T20:55:35.342Z,16.93
2019-03-26T20:58:06.376Z,18.17
2019-03-26T21:00:38.352Z,14.60
2019-03-26T21:03:08.968Z,14.10
2019-03-26T21:05:39.999Z,15.93
2019-03-26T21:08:11.047Z,14.97
2019-03-26T21:10:41.763Z,15.67
2019-03-26T21:13:12.758Z,19.27
2019-03-26T21:15:56.650Z,19.80
2019-03-26T21:18:17.370Z,22.17
2019-03-26T21:20:47.921Z,21.63
2019-03-26T21:23:18.790Z,21.20
2019-03-26T21:25:49.277Z,19.20
2019-03-26T21:28:22.490Z,18.57
2019-03-26T21:30:52.767Z,20.80
2019-03-26T21:33:23.762Z,19.80
2019-03-26T21:35:54.390Z,20.07
2019-03-26T21:38:24.974Z,19.40
2019-03-26T21:41:00.204Z,17.17
2019-03-26T21:43:33.652Z,17.03
2019-03-26T21:46:04.478Z,17.87
2019-03-26T21:48:36.301Z,16.37
2019-03-26T21:51:08.926Z,17.93
2019-03-26T21:53:52.273Z,16.47
2019-03-26T21:56:23.982Z,14.87
2019-03-26T21:58:54.390Z,14.57
2019-03-26T22:01:25.010Z,16.63
2019-03-26T22:03:57.202Z,15.87
2019-03-26T22:06:27.580Z,16.30
2019-03-26T22:08:57.984Z,18.37
2019-03-26T22:11:28.477Z,19.73
2019-03-26T22:13:58.858Z,18.10
2019-03-26T22:16:29.361Z,16.37
2019-03-26T22:18:59.756Z,19.83
2019-03-26T22:21:30.102Z,22.57
2019-03-26T22:24:03.369Z,19.43
2019-03-26T22:26:37.827Z,20.63
2019-03-26T22:29:08.326Z,15.87
2019-03-26T22:31:38.834Z,16.50
2019-03-26T22:34:09.538Z,15.53
2019-03-26T22:36:42.093Z,15.83
2019-03-26T22:39:12.673Z,16.67
2019-03-26T22:41:43.050Z,16.93
2019-03-26T22:44:13.731Z,16.80
2019-03-26T22:46:44.198Z,17.00
2019-03-26T22:49:14.646Z,17.67
2019-03-26T22:51:45.283Z,18.43
2019-03-26T22:54:19.869Z,17.00
2019-03-26T22:56:55.892Z,19.00
2019-03-26T22:59:27.216Z,25.20
2019-03-26T23:01:57.707Z,19.13
2019-03-26T23:04:28.284Z,17.97
2019-03-26T23:06:58.980Z,14.90
2019-03-26T23:09:29.592Z,14.93
2019-03-26T23:12:00.068Z,15.93
2019-03-26T23:14:44.421Z,15.60
2019-03-26T23:17:06.248Z,15.67
2019-03-26T23:19:39.522Z,15.43
2019-03-26T23:22:09.872Z,14.10
2019-03-26T23:24:40.705Z,15.20
2019-03-26T23:27:11.418Z,14.13
2019-03-26T23:29:41.789Z,14.97
2019-03-26T23:32:13.750Z,14.90
2019-03-26T23:34:44.793Z,13.90
2019-03-26T23:37:15.381Z,13.87
2019-03-26T23:39:45.818Z,13.20
2019-03-26T23:42:19.378Z,18.93
2019-03-26T23:44:58.331Z,16.93
2019-03-26T23:47:25.376Z,16.83
2019-03-26T23:49:55.645Z,17.27
2019-03-26T23:52:25.929Z,15.73
2019-03-26T23:54:59.402Z,15.23
2019-03-26T23:57:29.774Z,15.50
